Main page
METAR-TAF:

METAR-TAF

Airports :

Rimini, Italy

Federico Fellini International Airport

latitude: 44-02N, longitude: 012-37E, elevation: 12 m

Current weather observation

The report was made 35 minutes ago, at 18:45 UTC
Wind 4 kt from the West
Temperature 11°C
Humidity 82%
Pressure 1017 hPa
Visibility 10 km or more
Scattered clouds at a height of 3000 ft
Broken clouds at a height of 6000 ft

METAR: LIPR 171845Z 26004KT 9999 SCT030 BKN060 11/08 Q1017 RMK OVC VIS MIN 9999 WIND THR31 28002KT BLU

Time: 20:20 (19:20 UTC)

Forecast

The report was made 2 hours and 20 minutes ago, at 17:00 UTC
Forecast valid from 17 at 18 UTC to 18 at 03 UTC
Wind 5 kt from the West/Northwest
Visibility 10 km or more
Scattered clouds at a height of 3500 ft
Scattered clouds at a height of 6000 ft
Probability 40% :
Temporary
from 17 at 22 UTC to 18 at 03 UTC
Visibility: 5000 m
mist

TAF: LIPR 171700Z 1718/1803 29005KT 9999 SCT035 SCT060 PROB40 TEMPO 1722/1803 5000 BR

Weather observations and forecasts of more than 4000 airports (METAR and TAF reports).

The available stations are represented by yellow and red dots on the map.

Hover mouse over dot to see the name of the station.

Then click to see weather observations and forecasts.

To change the map : click on the green buttons with a black cross to zoom in, on the green button with a dash to zoom out, or on the green arrows for adjacent maps.


METAR-TAF: